Pulpca — PHMT — position and weather

sailwx.info

Track history (hours):
 
Tides and Currents Weather Stations Pressure Air Temp Water Temp Dewpoint Dewpoint Depression Visibility Wind Speed Wind Dir Waves Ship Positions

Pulpca

Last reported at 2018-Apr-24 08:29 UTC. Time now 2018-Apr-24 08:51 UTC.
Position N 61°08' E 021°26'.

Length 205 m; draft 7.3 m.

Type: Ship (hazmat cat A). MMSI: 245097000.

Date/timePositionNaut miles runAvg speedWind from/ knotsBaromVisibWave heightAir tempDewpointWater temp
2018-Apr-24 08:29N 61°08' E 021°26'0 0.0
2018-Apr-24 07:59N 61°08' E 021°26'0 0.0
2018-Apr-24 07:29N 61°08' E 021°26'0 0.0
2018-Apr-24 06:59N 61°08' E 021°26'0 0.0
2018-Apr-24 06:29N 61°08' E 021°26'0 0.0
2018-Apr-24 05:59N 61°08' E 021°26'0 0.0
2018-Apr-24 05:29N 61°08' E 021°26'0 0.0
2018-Apr-24 04:59N 61°08' E 021°26'0 0.0
2018-Apr-24 04:29N 61°08' E 021°26'0 0.0
2018-Apr-24 03:59N 61°08' E 021°26'0 0.9
2018-Apr-24 03:31N 61°08' E 021°26'510.6
2018-Apr-24 03:00N 61°06' E 021°15'713.3
2018-Apr-24 02:30N 61°08' E 021°01'6920.2
2018-Apr-23 23:05N 60°29' E 019°04'220.8
2018-Apr-23 23:01N 60°28' E 019°03'1220.9
2018-Apr-23 22:27N 60°16' E 019°01'920.7
2018-Apr-23 22:00N 60°08' E 019°11'1120.8
2018-Apr-23 21:29N 60°00' E 019°25'1020.8
2018-Apr-23 21:01N 59°52' E 019°37'3919.4
2018-Apr-23 18:59N 59°35' E 020°48'1020.8
2018-Apr-23 18:31N 59°34' E 021°07'1121.4
2018-Apr-23 18:00N 59°33' E 021°28'1122.0
2018-Apr-23 17:30N 59°32' E 021°50'1121.7
2018-Apr-23 17:01N 59°33' E 022°11'1122.1
2018-Apr-23 16:31N 59°36' E 022°32'1121.9
2018-Apr-23 16:01N 59°39' E 022°53'816.7
2018-Apr-23 15:31N 59°46' E 023°00'4 7.4
2018-Apr-23 15:00N 59°49' E 022°57'1 0.1
2018-Apr-23 08:52N 59°49' E 022°56'513.9
2018-Apr-23 08:30N 59°45' E 023°03'1019.5
2018-Apr-23 08:00N 59°36' E 022°56'23920.9
2018-Apr-22 20:34N 56°36' E 017°59'321.0
2018-Apr-22 20:26N 56°34' E 017°55'920.9
2018-Apr-22 20:00N 56°29' E 017°43'1020.7
2018-Apr-22 19:30N 56°22' E 017°28'1020.7
2018-Apr-22 19:00N 56°16' E 017°14'1020.6
2018-Apr-22 18:30N 56°09' E 016°59'1020.6
2018-Apr-22 18:00N 56°03' E 016°44'1020.8
2018-Apr-22 17:30N 55°58' E 016°28'1020.8
2018-Apr-22 17:00N 55°52' E 016°12'1020.8
2018-Apr-22 16:30N 55°47' E 015°56'1021.0
2018-Apr-22 16:00N 55°42' E 015°40'1020.8
2018-Apr-22 15:30N 55°37' E 015°24'1020.9
2018-Apr-22 15:00N 55°32' E 015°08'1020.7
2018-Apr-22 14:30N 55°28' E 014°51'1020.7
2018-Apr-22 14:00N 55°22' E 014°36'1121.1
2018-Apr-22 13:30N 55°14' E 014°24'1121.2
2018-Apr-22 13:00N 55°05' E 014°13'1220.0
2018-Apr-22 12:23N 54°59' E 013°55'5420.5
2018-Apr-22 09:45N 54°39' E 012°28'519.5
2018-Apr-22 09:30N 54°36' E 012°21'2417.6
2018-Apr-22 08:08N 54°24' E 011°45'320.8
2018-Apr-22 08:00N 54°25' E 011°41'1020.9
2018-Apr-22 07:30N 54°30' E 011°25'1021.0
2018-Apr-22 07:00N 54°34' E 011°08'1019.7
2018-Apr-22 06:30N 54°34' E 010°51'1019.9
2018-Apr-22 06:00N 54°33' E 010°34'1019.0
2018-Apr-22 05:30N 54°29' E 010°19'713.7
2018-Apr-22 05:00N 54°24' E 010°12'3 5.6
2018-Apr-22 04:31N 54°22' E 010°08'6 3.3
2018-Apr-22 02:37N 54°21' E 009°58'2 5.9
2018-Apr-22 02:16N 54°21' E 009°55'2 6.4
2018-Apr-22 01:57N 54°22' E 009°51'3 6.5
2018-Apr-22 01:31N 54°21' E 009°47'3 6.0
2018-Apr-22 01:00N 54°19' E 009°43'3 5.7
2018-Apr-22 00:31N 54°17' E 009°39'2 4.2
2018-Apr-22 00:00N 54°16' E 009°37'2 3.9
2018-Apr-21 23:30N 54°14' E 009°36'3 6.6
2018-Apr-21 23:01N 54°12' E 009°32'3 6.8
2018-Apr-21 22:31N 54°10' E 009°26'3 6.8
2018-Apr-21 22:01N 54°09' E 009°21'3 6.5
2018-Apr-21 21:31N 54°06' E 009°20'3 6.9
2018-Apr-21 21:00N 54°02' E 009°18'3 6.3
2018-Apr-21 20:31N 53°59' E 009°17'3 6.9
2018-Apr-21 20:01N 53°57' E 009°13'3 7.0
2018-Apr-21 19:31N 53°54' E 009°09'1 1.2
2018-Apr-21 19:01N 53°54' E 009°09'1 2.7
2018-Apr-21 18:30N 53°53' E 009°07'0 0.5
2018-Apr-21 18:00N 53°53' E 009°06'0 0.1
2018-Apr-21 17:30N 53°53' E 009°06'0 0.1
2018-Apr-21 17:00N 53°53' E 009°06'0 0.9
2018-Apr-21 16:31N 53°53' E 009°06'2 4.8
2018-Apr-21 16:01N 53°52' E 009°02'816.2
2018-Apr-21 15:30N 53°50' E 008°48'815.2
2018-Apr-21 15:00N 53°56' E 008°40'1020.2
2018-Apr-21 14:30N 53°59' E 008°23'917.3
2018-Apr-21 14:00N 53°59' E 008°09'918.0
2018-Apr-21 13:30N 53°58' E 007°54'917.9
2018-Apr-21 12:59N 53°55' E 007°38'918.0
2018-Apr-21 12:30N 53°53' E 007°24'3118.3
2018-Apr-21 10:49N 53°46' E 006°33'1518.7
2018-Apr-21 10:02N 53°43' E 006°09'118.5
2018-Apr-21 10:00N 53°42' E 006°08'1019.0
2018-Apr-21 09:29N 53°40' E 005°52'1119.4
2018-Apr-21 08:55N 53°36' E 005°35'819.6
2018-Apr-21 08:30N 53°34' E 005°22'1121.1
2018-Apr-21 08:00N 53°30' E 005°05'1121.1
2018-Apr-21 07:30N 53°26' E 004°49'1021.0
2018-Apr-21 07:00N 53°17' E 004°38'1122.0
2018-Apr-21 06:30N 53°08' E 004°29'1121.6
2018-Apr-21 06:00N 52°58' E 004°21'1121.1
2018-Apr-21 05:30N 52°49' E 004°12'1021.0
2018-Apr-21 05:01N 52°41' E 004°00'1121.1
2018-Apr-21 04:30N 52°33' E 003°49'1020.9
2018-Apr-21 04:00N 52°26' E 003°37'1020.0
2018-Apr-21 03:30N 52°16' E 003°31'1019.3
2018-Apr-21 03:00N 52°07' E 003°28'918.3
2018-Apr-21 02:31N 51°58' E 003°23'1019.6
2018-Apr-21 02:00N 51°49' E 003°18'612.9
2018-Apr-21 01:30N 51°43' E 003°17'815.2
2018-Apr-21 01:00N 51°36' E 003°23'713.0
2018-Apr-21 00:30N 51°30' E 003°28'611.3
2018-Apr-21 00:00N 51°26' E 003°34'511.1
2018-Apr-20 23:30N 51°24' E 003°43'815.4
2018-Apr-20 23:00N 51°22' E 003°54'510.7
2018-Apr-20 22:30N 51°24' E 004°02'713.6
2018-Apr-20 22:00N 51°23' E 004°13'612.1
2018-Apr-20 21:30N 51°18' E 004°18'2 4.2
2018-Apr-20 21:00N 51°16' E 004°17'0 0.3
2018-Apr-20 20:30N 51°16' E 004°16'1 1.8
2018-Apr-20 20:00N 51°16' E 004°15'1 2.2
2018-Apr-20 19:30N 51°15' E 004°14'0 0.0
2018-Apr-20 18:59N 51°15' E 004°14'0 0.0
2018-Apr-20 18:29N 51°15' E 004°14'0 0.0
2018-Apr-20 17:59N 51°15' E 004°14'0 0.0
2018-Apr-20 17:29N 51°15' E 004°14'0 0.0
2018-Apr-20 16:59N 51°15' E 004°14'0 0.0
2018-Apr-20 16:29N 51°15' E 004°14'0 0.0
2018-Apr-20 15:59N 51°15' E 004°14'0 0.0
2018-Apr-20 15:29N 51°15' E 004°14'0 0.0
2018-Apr-20 14:59N 51°15' E 004°14'0 0.0
2018-Apr-20 14:29N 51°15' E 004°14'0 0.0
2018-Apr-20 13:59N 51°15' E 004°14'0 0.0
2018-Apr-20 13:29N 51°15' E 004°14'0 0.0
2018-Apr-20 12:59N 51°15' E 004°14'0 0.0
2018-Apr-20 12:29N 51°15' E 004°14'0 0.0
2018-Apr-20 11:56N 51°15' E 004°14'0 0.0
2018-Apr-20 11:29N 51°15' E 004°14'0 0.0
2018-Apr-20 10:59N 51°15' E 004°14'1 1.7
2018-Apr-20 10:30N 51°16' E 004°15'1 1.6
2018-Apr-20 10:00N 51°17' E 004°15'0 0.0
2018-Apr-20 09:30N 51°17' E 004°15'1 2.7
2018-Apr-20 09:00N 51°18' E 004°16'4 8.3
2018-Apr-20 08:30N 51°22' E 004°13'511.0
2018-Apr-20 08:00N 51°22' E 004°05'510.2
2018-Apr-20 07:30N 51°25' E 003°58'713.4
2018-Apr-20 07:00N 51°21' E 003°50'713.8
2018-Apr-20 06:30N 51°25' E 003°42'612.6
2018-Apr-20 06:01N 51°25' E 003°32'1019.9
2018-Apr-20 05:31N 51°25' E 003°16'1020.8
2018-Apr-20 05:01N 51°23' E 002°59'1219.2
2018-Apr-20 04:24N 51°22' E 002°41'512.6
2018-Apr-20 04:00N 51°22' E 002°33'713.2
2018-Apr-20 03:30N 51°20' E 002°23'714.2
2018-Apr-20 03:00N 51°19' E 002°12'713.3
2018-Apr-20 02:30N 51°22' E 002°03'713.6
2018-Apr-20 02:00N 51°27' E 001°54'612.9
2018-Apr-20 01:30N 51°30' E 001°46'1 2.8
2018-Apr-20 01:00N 51°30' E 001°44'1 2.1
2018-Apr-20 00:30N 51°30' E 001°42'1 1.2
2018-Apr-20 00:00N 51°30' E 001°42'1 1.9
2018-Apr-19 23:30N 51°31' E 001°42'4 7.9
2018-Apr-19 23:00N 51°31' E 001°36'4 7.6
2018-Apr-19 22:30N 51°28' E 001°33'4 8.3
2018-Apr-19 22:00N 51°27' E 001°26'815.8
2018-Apr-19 21:30N 51°29' E 001°14'612.1
2018-Apr-19 21:00N 51°30' E 001°04'815.2
2018-Apr-19 20:31N 51°29' E 000°52'917.4
2018-Apr-19 20:01N 51°30' E 000°38'713.3
2018-Apr-19 19:30N 51°29' E 000°27'5 9.3
2018-Apr-19 19:01N 51°27' E 000°21'0 0.7
2018-Apr-19 18:30N 51°27' E 000°21'0 0.3
2018-Apr-19 18:01N 51°27' E 000°21'1 1.2
2018-Apr-19 17:31N 51°28' E 000°20'0 0.0
2018-Apr-19 17:01N 51°28' E 000°20'0 0.0
2018-Apr-19 16:30N 51°28' E 000°20'0 0.0
2018-Apr-19 16:01N 51°28' E 000°20'0 0.0
2018-Apr-19 15:31N 51°28' E 000°20'0 0.0
2018-Apr-19 14:59N 51°28' E 000°20'0 0.0
2018-Apr-19 14:31N 51°28' E 000°20'0 0.0
2018-Apr-19 14:00N 51°28' E 000°20'0 0.0
2018-Apr-19 13:31N 51°28' E 000°20'0 0.0
2018-Apr-19 13:01N 51°28' E 000°20'0 0.0
2018-Apr-19 12:30N 51°28' E 000°20'0 0.0
2018-Apr-19 12:01N 51°28' E 000°20'0 0.0
2018-Apr-19 11:30N 51°28' E 000°20'0 0.0
2018-Apr-19 11:00N 51°28' E 000°20'0 0.0
2018-Apr-19 10:30N 51°28' E 000°20'0 0.0
2018-Apr-19 10:01N 51°28' E 000°20'0 0.0
2018-Apr-19 09:31N 51°28' E 000°20'0 0.0
2018-Apr-19 09:01N 51°28' E 000°20'0 0.1
2018-Apr-19 08:30N 51°28' E 000°20'0 0.1
2018-Apr-19 08:01N 51°28' E 000°20'0 0.0
2018-Apr-19 07:30N 51°28' E 000°20'0 0.0
2018-Apr-19 07:00N 51°28' E 000°20'0 0.0
2018-Apr-19 06:31N 51°28' E 000°20'0 0.0
2018-Apr-19 06:01N 51°28' E 000°20'0 0.0
2018-Apr-19 05:31N 51°28' E 000°20'0 0.0
2018-Apr-19 05:00N 51°28' E 000°20'0 0.0
2018-Apr-19 04:30N 51°28' E 000°20'0 0.0
2018-Apr-19 04:00N 51°28' E 000°20'0 0.0
2018-Apr-19 03:30N 51°28' E 000°20'0 0.0
2018-Apr-19 03:00N 51°28' E 000°20'0 0.0
2018-Apr-19 02:31N 51°28' E 000°20'0 0.0
2018-Apr-19 02:01N 51°28' E 000°20'0 0.0
2018-Apr-19 01:31N 51°28' E 000°20'0 0.0
2018-Apr-19 01:01N 51°28' E 000°20'0 0.0
2018-Apr-19 00:30N 51°28' E 000°20'0 0.0
2018-Apr-19 00:00N 51°28' E 000°20'0 0.0
2018-Apr-18 23:30N 51°28' E 000°20'0 0.0
2018-Apr-18 23:00N 51°28' E 000°20'0 0.0
2018-Apr-18 22:30N 51°28' E 000°20'0 0.0
2018-Apr-18 22:00N 51°28' E 000°20'0 0.0
2018-Apr-18 21:31N 51°28' E 000°20'0 0.0
2018-Apr-18 21:01N 51°28' E 000°20'0 0.0
2018-Apr-18 20:30N 51°28' E 000°20'0 0.0
2018-Apr-18 20:01N 51°28' E 000°20'0 0.0
2018-Apr-18 19:30N 51°28' E 000°20'0 0.0
2018-Apr-18 19:01N 51°28' E 000°20'0 0.0
2018-Apr-18 18:30N 51°28' E 000°20'0 0.0
2018-Apr-18 18:00N 51°28' E 000°20'0 0.0
2018-Apr-18 17:30N 51°28' E 000°20'0 0.0
2018-Apr-18 17:00N 51°28' E 000°20'0 0.0
2018-Apr-18 16:30N 51°28' E 000°20'0 0.0
2018-Apr-18 16:01N 51°28' E 000°20'0 0.0
2018-Apr-18 15:30N 51°28' E 000°20'0 0.0
2018-Apr-18 15:00N 51°28' E 000°20'0 0.0
2018-Apr-18 14:31N 51°28' E 000°20'0 0.0
2018-Apr-18 14:01N 51°28' E 000°20'0 0.0
2018-Apr-18 13:31N 51°28' E 000°20'0 0.0
2018-Apr-18 13:01N 51°28' E 000°20'0 0.0
2018-Apr-18 12:31N 51°28' E 000°20'0 0.0
2018-Apr-18 12:01N 51°28' E 000°20'0 0.0
2018-Apr-18 11:30N 51°28' E 000°20'0 0.0
2018-Apr-18 11:00N 51°28' E 000°20'0 0.0
2018-Apr-18 10:30N 51°28' E 000°20'0 0.0
2018-Apr-18 10:01N 51°28' E 000°20'0 0.0
2018-Apr-18 09:31N 51°28' E 000°20'0 0.0
2018-Apr-18 09:00N 51°28' E 000°20'0 0.0
2018-Apr-18 08:30N 51°28' E 000°20'0 0.0
2018-Apr-18 08:00N 51°28' E 000°20'0 0.0
2018-Apr-18 07:31N 51°28' E 000°20'0 0.0
2018-Apr-18 07:01N 51°28' E 000°20'0 0.0
2018-Apr-18 06:31N 51°28' E 000°20'0 0.0
2018-Apr-18 06:01N 51°28' E 000°20'0 0.0
2018-Apr-18 05:30N 51°28' E 000°20'0 0.0
2018-Apr-18 05:00N 51°28' E 000°20'0 0.0
2018-Apr-18 04:30N 51°28' E 000°20'0 0.0
2018-Apr-18 04:00N 51°28' E 000°20'0 0.0
2018-Apr-18 03:31N 51°28' E 000°20'0 0.8
2018-Apr-18 03:01N 51°28' E 000°21'0 0.7
2018-Apr-18 02:30N 51°27' E 000°20'0 0.4
2018-Apr-18 02:01N 51°27' E 000°20'1 2.6
2018-Apr-18 01:31N 51°27' E 000°22'4 8.4
2018-Apr-18 01:01N 51°29' E 000°28'611.3
2018-Apr-18 00:31N 51°30' E 000°37'713.1
2018-Apr-18 00:00N 51°29' E 000°47'612.4
2018-Apr-17 23:30N 51°29' E 000°57'611.5
2018-Apr-17 23:00N 51°30' E 001°07'712.4
2018-Apr-17 22:25N 51°29' E 001°18'615.0
2018-Apr-17 22:00N 51°27' E 001°28'4 7.1
2018-Apr-17 21:31N 51°28' E 001°33'714.2
2018-Apr-17 21:00N 51°29' E 001°45'510.4
2018-Apr-17 20:30N 51°28' E 001°53'510.6
2018-Apr-17 20:01N 51°25' E 001°60'612.3
2018-Apr-17 19:31N 51°22' E 002°08'510.7
2018-Apr-17 19:01N 51°21' E 002°17'611.6
2018-Apr-17 18:30N 51°22' E 002°26'612.1
2018-Apr-17 18:00N 51°23' E 002°35'812.7
2018-Apr-17 17:24N 51°22' E 002°47'818.8
2018-Apr-17 17:00N 51°24' E 002°59'919.0
2018-Apr-17 16:30N 51°25' E 003°14'1019.8
2018-Apr-17 16:00N 51°25' E 003°30'713.1
2018-Apr-17 15:30N 51°27' E 003°40'713.1
2018-Apr-17 15:00N 51°21' E 003°47'612.6
2018-Apr-17 14:30N 51°23' E 003°57'4 7.1
2018-Apr-17 14:00N 51°24' E 004°02'510.5
2018-Apr-17 13:30N 51°24' E 004°10'510.5
2018-Apr-17 13:00N 51°20' E 004°16'3 6.5
2018-Apr-17 12:30N 51°17' E 004°15'0 0.0
2018-Apr-17 12:00N 51°17' E 004°15'0 0.4
2018-Apr-17 11:30N 51°17' E 004°15'1 2.9
2018-Apr-17 11:00N 51°15' E 004°14'0 0.0
2018-Apr-17 10:30N 51°15' E 004°14'0 0.0
2018-Apr-17 09:56N 51°15' E 004°14'0 0.0
2018-Apr-17 09:29N 51°15' E 004°14'0 0.0
2018-Apr-17 08:59N 51°15' E 004°14'0 0.0
2018-Apr-17 08:29N 51°15' E 004°14'0 0.0
2018-Apr-17 07:59N 51°15' E 004°14'0 0.0
2018-Apr-17 07:26N 51°15' E 004°14'0 0.0
2018-Apr-17 06:59N 51°15' E 004°14'0 0.0
2018-Apr-17 06:29N 51°15' E 004°14'0 0.0
2018-Apr-17 05:59N 51°15' E 004°14'0 0.0
2018-Apr-17 05:29N 51°15' E 004°14'0 0.0
2018-Apr-17 04:59N 51°15' E 004°14'0 0.0
2018-Apr-17 04:29N 51°15' E 004°14'0 0.0
2018-Apr-17 03:59N 51°15' E 004°14'0 0.0
2018-Apr-17 03:29N 51°15' E 004°14'0 0.0
2018-Apr-17 02:59N 51°15' E 004°14'0 0.0
2018-Apr-17 02:29N 51°15' E 004°14'0 0.0
2018-Apr-17 02:00N 51°15' E 004°14'0 0.4
2018-Apr-17 01:30N 51°15' E 004°14'2 2.9
2018-Apr-17 00:59N 51°17' E 004°15'0 0.0
2018-Apr-17 00:30N 51°17' E 004°15'0 0.4
2018-Apr-17 00:00N 51°17' E 004°15'3 5.7
2018-Apr-16 23:30N 51°20' E 004°16'510.5
2018-Apr-16 23:00N 51°23' E 004°10'714.2
2018-Apr-16 22:30N 51°26' E 003°60'917.2
2018-Apr-16 22:00N 51°21' E 003°49'714.3
2018-Apr-16 21:30N 51°26' E 003°41'5 9.9
2018-Apr-16 21:00N 51°25' E 003°33'612.2
2018-Apr-16 20:30N 51°24' E 003°23'611.9
2018-Apr-16 20:00N 51°24' E 003°14'611.1
2018-Apr-16 19:30N 51°24' E 003°05'612.8
2018-Apr-16 19:01N 51°30' E 003°03'1019.6
2018-Apr-16 18:30N 51°39' E 003°11'917.8
2018-Apr-16 17:59N 51°48' E 003°16'1119.2
2018-Apr-16 17:25N 51°59' E 003°19'818.9
2018-Apr-16 17:00N 52°06' E 003°21'918.2
2018-Apr-16 16:30N 52°15' E 003°25'817.4
2018-Apr-16 16:00N 52°24' E 003°27'1017.3
2018-Apr-16 15:26N 52°33' E 003°29'20517.4
2018-Apr-16 03:38N 55°30' E 006°27'217.7
2018-Apr-16 03:30N 55°32' E 006°29'917.7
2018-Apr-16 03:00N 55°39' E 006°38'917.7
2018-Apr-16 02:30N 55°47' E 006°46'16417.1
2018-Apr-15 16:54N 57°45' E 010°13'717.3
2018-Apr-15 16:30N 57°47' E 010°25'917.7
2018-Apr-15 16:00N 57°48' E 010°41'816.8
2018-Apr-15 15:30N 57°45' E 010°56'917.2
2018-Apr-15 15:00N 57°39' E 011°07'917.5
2018-Apr-15 14:30N 57°32' E 011°18'917.2
2018-Apr-15 14:00N 57°26' E 011°28'917.8
2018-Apr-15 13:30N 57°17' E 011°34'918.1
2018-Apr-15 13:00N 57°09' E 011°39'11016.0
2018-Apr-15 06:08N 55°21' E 011°03'317.4
2018-Apr-15 05:57N 55°17' E 011°04'715.6
2018-Apr-15 05:30N 55°10' E 011°04'917.8
2018-Apr-15 05:00N 55°02' E 011°02'816.6
2018-Apr-15 04:30N 54°55' E 010°54'816.6
2018-Apr-15 04:00N 54°46' E 010°52'815.7
2018-Apr-15 03:30N 54°40' E 011°00'917.7
2018-Apr-15 03:00N 54°36' E 011°14'918.1
2018-Apr-15 02:30N 54°32' E 011°28'918.0
2018-Apr-15 02:00N 54°28' E 011°42'917.6
2018-Apr-15 01:30N 54°26' E 011°57'8316.7
2018-Apr-14 20:32N 55°04' E 014°05'017.5
2018-Apr-14 20:30N 55°04' E 014°06'917.4
2018-Apr-14 19:58N 55°12' E 014°16'817.9
2018-Apr-14 19:30N 55°18' E 014°24'917.9
2018-Apr-14 19:00N 55°25' E 014°34'917.6
2018-Apr-14 18:30N 55°30' E 014°47'917.5
2018-Apr-14 17:59N 55°35' E 015°01'817.5
2018-Apr-14 17:30N 55°38' E 015°14'917.7
2018-Apr-14 17:00N 55°43' E 015°28'917.6
2018-Apr-14 16:30N 55°47' E 015°41'917.8
2018-Apr-14 16:00N 55°51' E 015°55'917.9
2018-Apr-14 15:30N 55°56' E 016°09'917.9
2018-Apr-14 15:00N 56°00' E 016°23'917.7
2018-Apr-14 14:30N 56°05' E 016°37'917.6
2018-Apr-14 13:59N 56°13' E 016°45'917.8
2018-Apr-14 13:28N 56°21' E 016°51'1017.8
2018-Apr-14 12:54N 56°31' E 016°58'  
Track history (hours):
 
Tides and Currents Weather Stations Pressure Air Temp Water Temp Dewpoint Dewpoint Depression Visibility Wind Speed Wind Dir Waves Ship Positions

Pulpca

Last reported at 2018-Apr-24 08:29 UTC. Time now 2018-Apr-24 08:51 UTC.
Position N 61°08' E 021°26'.

Length 205 m; draft 7.3 m.

Type: Ship (hazmat cat A). MMSI: 245097000.

Date/timePositionNaut miles runAvg speedWind from/ knotsBaromVisibWave heightAir tempDewpointWater temp
2018-Apr-24 08:29N 61°08' E 021°26'0 0.0
2018-Apr-24 07:59N 61°08' E 021°26'0 0.0
2018-Apr-24 07:29N 61°08' E 021°26'0 0.0
2018-Apr-24 06:59N 61°08' E 021°26'0 0.0
2018-Apr-24 06:29N 61°08' E 021°26'0 0.0
2018-Apr-24 05:59N 61°08' E 021°26'0 0.0
2018-Apr-24 05:29N 61°08' E 021°26'0 0.0
2018-Apr-24 04:59N 61°08' E 021°26'0 0.0
2018-Apr-24 04:29N 61°08' E 021°26'0 0.0
2018-Apr-24 03:59N 61°08' E 021°26'0 0.9
2018-Apr-24 03:31N 61°08' E 021°26'510.6
2018-Apr-24 03:00N 61°06' E 021°15'713.3
2018-Apr-24 02:30N 61°08' E 021°01'6920.2
2018-Apr-23 23:05N 60°29' E 019°04'220.8
2018-Apr-23 23:01N 60°28' E 019°03'1220.9
2018-Apr-23 22:27N 60°16' E 019°01'920.7
2018-Apr-23 22:00N 60°08' E 019°11'1120.8
2018-Apr-23 21:29N 60°00' E 019°25'1020.8
2018-Apr-23 21:01N 59°52' E 019°37'3919.4
2018-Apr-23 18:59N 59°35' E 020°48'1020.8
2018-Apr-23 18:31N 59°34' E 021°07'1121.4
2018-Apr-23 18:00N 59°33' E 021°28'1122.0
2018-Apr-23 17:30N 59°32' E 021°50'1121.7
2018-Apr-23 17:01N 59°33' E 022°11'1122.1
2018-Apr-23 16:31N 59°36' E 022°32'1121.9
2018-Apr-23 16:01N 59°39' E 022°53'816.7
2018-Apr-23 15:31N 59°46' E 023°00'4 7.4
2018-Apr-23 15:00N 59°49' E 022°57'1 0.1
2018-Apr-23 08:52N 59°49' E 022°56'513.9
2018-Apr-23 08:30N 59°45' E 023°03'1019.5
2018-Apr-23 08:00N 59°36' E 022°56'23920.9
2018-Apr-22 20:34N 56°36' E 017°59'321.0
2018-Apr-22 20:26N 56°34' E 017°55'920.9
2018-Apr-22 20:00N 56°29' E 017°43'1020.7
2018-Apr-22 19:30N 56°22' E 017°28'1020.7
2018-Apr-22 19:00N 56°16' E 017°14'1020.6
2018-Apr-22 18:30N 56°09' E 016°59'1020.6
2018-Apr-22 18:00N 56°03' E 016°44'1020.8
2018-Apr-22 17:30N 55°58' E 016°28'1020.8
2018-Apr-22 17:00N 55°52' E 016°12'1020.8
2018-Apr-22 16:30N 55°47' E 015°56'1021.0
2018-Apr-22 16:00N 55°42' E 015°40'1020.8
2018-Apr-22 15:30N 55°37' E 015°24'1020.9
2018-Apr-22 15:00N 55°32' E 015°08'1020.7
2018-Apr-22 14:30N 55°28' E 014°51'1020.7
2018-Apr-22 14:00N 55°22' E 014°36'1121.1
2018-Apr-22 13:30N 55°14' E 014°24'1121.2
2018-Apr-22 13:00N 55°05' E 014°13'1220.0
2018-Apr-22 12:23N 54°59' E 013°55'5420.5
2018-Apr-22 09:45N 54°39' E 012°28'519.5
2018-Apr-22 09:30N 54°36' E 012°21'2417.6
2018-Apr-22 08:08N 54°24' E 011°45'320.8
2018-Apr-22 08:00N 54°25' E 011°41'1020.9
2018-Apr-22 07:30N 54°30' E 011°25'1021.0
2018-Apr-22 07:00N 54°34' E 011°08'1019.7
2018-Apr-22 06:30N 54°34' E 010°51'1019.9
2018-Apr-22 06:00N 54°33' E 010°34'1019.0
2018-Apr-22 05:30N 54°29' E 010°19'713.7
2018-Apr-22 05:00N 54°24' E 010°12'3 5.6
2018-Apr-22 04:31N 54°22' E 010°08'6 3.3
2018-Apr-22 02:37N 54°21' E 009°58'2 5.9
2018-Apr-22 02:16N 54°21' E 009°55'2 6.4
2018-Apr-22 01:57N 54°22' E 009°51'3 6.5
2018-Apr-22 01:31N 54°21' E 009°47'3 6.0
2018-Apr-22 01:00N 54°19' E 009°43'3 5.7
2018-Apr-22 00:31N 54°17' E 009°39'2 4.2
2018-Apr-22 00:00N 54°16' E 009°37'2 3.9
2018-Apr-21 23:30N 54°14' E 009°36'3 6.6
2018-Apr-21 23:01N 54°12' E 009°32'3 6.8
2018-Apr-21 22:31N 54°10' E 009°26'3 6.8
2018-Apr-21 22:01N 54°09' E 009°21'3 6.5
2018-Apr-21 21:31N 54°06' E 009°20'3 6.9
2018-Apr-21 21:00N 54°02' E 009°18'3 6.3
2018-Apr-21 20:31N 53°59' E 009°17'3 6.9
2018-Apr-21 20:01N 53°57' E 009°13'3 7.0
2018-Apr-21 19:31N 53°54' E 009°09'1 1.2
2018-Apr-21 19:01N 53°54' E 009°09'1 2.7
2018-Apr-21 18:30N 53°53' E 009°07'0 0.5
2018-Apr-21 18:00N 53°53' E 009°06'0 0.1
2018-Apr-21 17:30N 53°53' E 009°06'0 0.1
2018-Apr-21 17:00N 53°53' E 009°06'0 0.9
2018-Apr-21 16:31N 53°53' E 009°06'2 4.8
2018-Apr-21 16:01N 53°52' E 009°02'816.2
2018-Apr-21 15:30N 53°50' E 008°48'815.2
2018-Apr-21 15:00N 53°56' E 008°40'1020.2
2018-Apr-21 14:30N 53°59' E 008°23'917.3
2018-Apr-21 14:00N 53°59' E 008°09'918.0
2018-Apr-21 13:30N 53°58' E 007°54'917.9
2018-Apr-21 12:59N 53°55' E 007°38'918.0
2018-Apr-21 12:30N 53°53' E 007°24'3118.3
2018-Apr-21 10:49N 53°46' E 006°33'1518.7
2018-Apr-21 10:02N 53°43' E 006°09'118.5
2018-Apr-21 10:00N 53°42' E 006°08'1019.0
2018-Apr-21 09:29N 53°40' E 005°52'1119.4
2018-Apr-21 08:55N 53°36' E 005°35'819.6
2018-Apr-21 08:30N 53°34' E 005°22'1121.1
2018-Apr-21 08:00N 53°30' E 005°05'1121.1
2018-Apr-21 07:30N 53°26' E 004°49'1021.0
2018-Apr-21 07:00N 53°17' E 004°38'1122.0
2018-Apr-21 06:30N 53°08' E 004°29'1121.6
2018-Apr-21 06:00N 52°58' E 004°21'1121.1
2018-Apr-21 05:30N 52°49' E 004°12'1021.0
2018-Apr-21 05:01N 52°41' E 004°00'1121.1
2018-Apr-21 04:30N 52°33' E 003°49'1020.9
2018-Apr-21 04:00N 52°26' E 003°37'1020.0
2018-Apr-21 03:30N 52°16' E 003°31'1019.3
2018-Apr-21 03:00N 52°07' E 003°28'918.3
2018-Apr-21 02:31N 51°58' E 003°23'1019.6
2018-Apr-21 02:00N 51°49' E 003°18'612.9
2018-Apr-21 01:30N 51°43' E 003°17'815.2
2018-Apr-21 01:00N 51°36' E 003°23'713.0
2018-Apr-21 00:30N 51°30' E 003°28'611.3
2018-Apr-21 00:00N 51°26' E 003°34'511.1
2018-Apr-20 23:30N 51°24' E 003°43'815.4
2018-Apr-20 23:00N 51°22' E 003°54'510.7
2018-Apr-20 22:30N 51°24' E 004°02'713.6
2018-Apr-20 22:00N 51°23' E 004°13'612.1
2018-Apr-20 21:30N 51°18' E 004°18'2 4.2
2018-Apr-20 21:00N 51°16' E 004°17'0 0.3
2018-Apr-20 20:30N 51°16' E 004°16'1 1.8
2018-Apr-20 20:00N 51°16' E 004°15'1 2.2
2018-Apr-20 19:30N 51°15' E 004°14'0 0.0
2018-Apr-20 18:59N 51°15' E 004°14'0 0.0
2018-Apr-20 18:29N 51°15' E 004°14'0 0.0
2018-Apr-20 17:59N 51°15' E 004°14'0 0.0
2018-Apr-20 17:29N 51°15' E 004°14'0 0.0
2018-Apr-20 16:59N 51°15' E 004°14'0 0.0
2018-Apr-20 16:29N 51°15' E 004°14'0 0.0
2018-Apr-20 15:59N 51°15' E 004°14'0 0.0
2018-Apr-20 15:29N 51°15' E 004°14'0 0.0
2018-Apr-20 14:59N 51°15' E 004°14'0 0.0
2018-Apr-20 14:29N 51°15' E 004°14'0 0.0
2018-Apr-20 13:59N 51°15' E 004°14'0 0.0
2018-Apr-20 13:29N 51°15' E 004°14'0 0.0
2018-Apr-20 12:59N 51°15' E 004°14'0 0.0
2018-Apr-20 12:29N 51°15' E 004°14'0 0.0
2018-Apr-20 11:56N 51°15' E 004°14'0 0.0
2018-Apr-20 11:29N 51°15' E 004°14'0 0.0
2018-Apr-20 10:59N 51°15' E 004°14'1 1.7
2018-Apr-20 10:30N 51°16' E 004°15'1 1.6
2018-Apr-20 10:00N 51°17' E 004°15'0 0.0
2018-Apr-20 09:30N 51°17' E 004°15'1 2.7
2018-Apr-20 09:00N 51°18' E 004°16'4 8.3
2018-Apr-20 08:30N 51°22' E 004°13'511.0
2018-Apr-20 08:00N 51°22' E 004°05'510.2
2018-Apr-20 07:30N 51°25' E 003°58'713.4
2018-Apr-20 07:00N 51°21' E 003°50'713.8
2018-Apr-20 06:30N 51°25' E 003°42'612.6
2018-Apr-20 06:01N 51°25' E 003°32'1019.9
2018-Apr-20 05:31N 51°25' E 003°16'1020.8
2018-Apr-20 05:01N 51°23' E 002°59'1219.2
2018-Apr-20 04:24N 51°22' E 002°41'512.6
2018-Apr-20 04:00N 51°22' E 002°33'713.2
2018-Apr-20 03:30N 51°20' E 002°23'714.2
2018-Apr-20 03:00N 51°19' E 002°12'713.3
2018-Apr-20 02:30N 51°22' E 002°03'713.6
2018-Apr-20 02:00N 51°27' E 001°54'612.9
2018-Apr-20 01:30N 51°30' E 001°46'1 2.8
2018-Apr-20 01:00N 51°30' E 001°44'1 2.1
2018-Apr-20 00:30N 51°30' E 001°42'1 1.2
2018-Apr-20 00:00N 51°30' E 001°42'1 1.9
2018-Apr-19 23:30N 51°31' E 001°42'4 7.9
2018-Apr-19 23:00N 51°31' E 001°36'4 7.6
2018-Apr-19 22:30N 51°28' E 001°33'4 8.3
2018-Apr-19 22:00N 51°27' E 001°26'815.8
2018-Apr-19 21:30N 51°29' E 001°14'612.1
2018-Apr-19 21:00N 51°30' E 001°04'815.2
2018-Apr-19 20:31N 51°29' E 000°52'917.4
2018-Apr-19 20:01N 51°30' E 000°38'713.3
2018-Apr-19 19:30N 51°29' E 000°27'5 9.3
2018-Apr-19 19:01N 51°27' E 000°21'0 0.7
2018-Apr-19 18:30N 51°27' E 000°21'0 0.3
2018-Apr-19 18:01N 51°27' E 000°21'1 1.2
2018-Apr-19 17:31N 51°28' E 000°20'0 0.0
2018-Apr-19 17:01N 51°28' E 000°20'0 0.0
2018-Apr-19 16:30N 51°28' E 000°20'0 0.0
2018-Apr-19 16:01N 51°28' E 000°20'0 0.0
2018-Apr-19 15:31N 51°28' E 000°20'0 0.0
2018-Apr-19 14:59N 51°28' E 000°20'0 0.0
2018-Apr-19 14:31N 51°28' E 000°20'0 0.0
2018-Apr-19 14:00N 51°28' E 000°20'0 0.0
2018-Apr-19 13:31N 51°28' E 000°20'0 0.0
2018-Apr-19 13:01N 51°28' E 000°20'0 0.0
2018-Apr-19 12:30N 51°28' E 000°20'0 0.0
2018-Apr-19 12:01N 51°28' E 000°20'0 0.0
2018-Apr-19 11:30N 51°28' E 000°20'0 0.0
2018-Apr-19 11:00N 51°28' E 000°20'0 0.0
2018-Apr-19 10:30N 51°28' E 000°20'0 0.0
2018-Apr-19 10:01N 51°28' E 000°20'0 0.0
2018-Apr-19 09:31N 51°28' E 000°20'0 0.0
2018-Apr-19 09:01N 51°28' E 000°20'0 0.1
2018-Apr-19 08:30N 51°28' E 000°20'0 0.1
2018-Apr-19 08:01N 51°28' E 000°20'0 0.0
2018-Apr-19 07:30N 51°28' E 000°20'0 0.0
2018-Apr-19 07:00N 51°28' E 000°20'0 0.0
2018-Apr-19 06:31N 51°28' E 000°20'0 0.0
2018-Apr-19 06:01N 51°28' E 000°20'0 0.0
2018-Apr-19 05:31N 51°28' E 000°20'0 0.0
2018-Apr-19 05:00N 51°28' E 000°20'0 0.0
2018-Apr-19 04:30N 51°28' E 000°20'0 0.0
2018-Apr-19 04:00N 51°28' E 000°20'0 0.0
2018-Apr-19 03:30N 51°28' E 000°20'0 0.0
2018-Apr-19 03:00N 51°28' E 000°20'0 0.0
2018-Apr-19 02:31N 51°28' E 000°20'0 0.0
2018-Apr-19 02:01N 51°28' E 000°20'0 0.0
2018-Apr-19 01:31N 51°28' E 000°20'0 0.0
2018-Apr-19 01:01N 51°28' E 000°20'0 0.0
2018-Apr-19 00:30N 51°28' E 000°20'0 0.0
2018-Apr-19 00:00N 51°28' E 000°20'0 0.0
2018-Apr-18 23:30N 51°28' E 000°20'0 0.0
2018-Apr-18 23:00N 51°28' E 000°20'0 0.0
2018-Apr-18 22:30N 51°28' E 000°20'0 0.0
2018-Apr-18 22:00N 51°28' E 000°20'0 0.0
2018-Apr-18 21:31N 51°28' E 000°20'0 0.0
2018-Apr-18 21:01N 51°28' E 000°20'0 0.0
2018-Apr-18 20:30N 51°28' E 000°20'0 0.0
2018-Apr-18 20:01N 51°28' E 000°20'0 0.0
2018-Apr-18 19:30N 51°28' E 000°20'0 0.0
2018-Apr-18 19:01N 51°28' E 000°20'0 0.0
2018-Apr-18 18:30N 51°28' E 000°20'0 0.0
2018-Apr-18 18:00N 51°28' E 000°20'0 0.0
2018-Apr-18 17:30N 51°28' E 000°20'0 0.0
2018-Apr-18 17:00N 51°28' E 000°20'0 0.0
2018-Apr-18 16:30N 51°28' E 000°20'0 0.0
2018-Apr-18 16:01N 51°28' E 000°20'0 0.0
2018-Apr-18 15:30N 51°28' E 000°20'0 0.0
2018-Apr-18 15:00N 51°28' E 000°20'0 0.0
2018-Apr-18 14:31N 51°28' E 000°20'0 0.0
2018-Apr-18 14:01N 51°28' E 000°20'0 0.0
2018-Apr-18 13:31N 51°28' E 000°20'0 0.0
2018-Apr-18 13:01N 51°28' E 000°20'0 0.0
2018-Apr-18 12:31N 51°28' E 000°20'0 0.0
2018-Apr-18 12:01N 51°28' E 000°20'0 0.0
2018-Apr-18 11:30N 51°28' E 000°20'0 0.0
2018-Apr-18 11:00N 51°28' E 000°20'0 0.0
2018-Apr-18 10:30N 51°28' E 000°20'0 0.0
2018-Apr-18 10:01N 51°28' E 000°20'0 0.0
2018-Apr-18 09:31N 51°28' E 000°20'0 0.0
2018-Apr-18 09:00N 51°28' E 000°20'0 0.0
2018-Apr-18 08:30N 51°28' E 000°20'0 0.0
2018-Apr-18 08:00N 51°28' E 000°20'0 0.0
2018-Apr-18 07:31N 51°28' E 000°20'0 0.0
2018-Apr-18 07:01N 51°28' E 000°20'0 0.0
2018-Apr-18 06:31N 51°28' E 000°20'0 0.0
2018-Apr-18 06:01N 51°28' E 000°20'0 0.0
2018-Apr-18 05:30N 51°28' E 000°20'0 0.0
2018-Apr-18 05:00N 51°28' E 000°20'0 0.0
2018-Apr-18 04:30N 51°28' E 000°20'0 0.0
2018-Apr-18 04:00N 51°28' E 000°20'0 0.0
2018-Apr-18 03:31N 51°28' E 000°20'0 0.8
2018-Apr-18 03:01N 51°28' E 000°21'0 0.7
2018-Apr-18 02:30N 51°27' E 000°20'0 0.4
2018-Apr-18 02:01N 51°27' E 000°20'1 2.6
2018-Apr-18 01:31N 51°27' E 000°22'4 8.4
2018-Apr-18 01:01N 51°29' E 000°28'611.3
2018-Apr-18 00:31N 51°30' E 000°37'713.1
2018-Apr-18 00:00N 51°29' E 000°47'612.4
2018-Apr-17 23:30N 51°29' E 000°57'611.5
2018-Apr-17 23:00N 51°30' E 001°07'712.4
2018-Apr-17 22:25N 51°29' E 001°18'615.0
2018-Apr-17 22:00N 51°27' E 001°28'4 7.1
2018-Apr-17 21:31N 51°28' E 001°33'714.2
2018-Apr-17 21:00N 51°29' E 001°45'510.4
2018-Apr-17 20:30N 51°28' E 001°53'510.6
2018-Apr-17 20:01N 51°25' E 001°60'612.3
2018-Apr-17 19:31N 51°22' E 002°08'510.7
2018-Apr-17 19:01N 51°21' E 002°17'611.6
2018-Apr-17 18:30N 51°22' E 002°26'612.1
2018-Apr-17 18:00N 51°23' E 002°35'812.7
2018-Apr-17 17:24N 51°22' E 002°47'818.8
2018-Apr-17 17:00N 51°24' E 002°59'919.0
2018-Apr-17 16:30N 51°25' E 003°14'1019.8
2018-Apr-17 16:00N 51°25' E 003°30'713.1
2018-Apr-17 15:30N 51°27' E 003°40'713.1
2018-Apr-17 15:00N 51°21' E 003°47'612.6
2018-Apr-17 14:30N 51°23' E 003°57'4 7.1
2018-Apr-17 14:00N 51°24' E 004°02'510.5
2018-Apr-17 13:30N 51°24' E 004°10'510.5
2018-Apr-17 13:00N 51°20' E 004°16'3 6.5
2018-Apr-17 12:30N 51°17' E 004°15'0 0.0
2018-Apr-17 12:00N 51°17' E 004°15'0 0.4
2018-Apr-17 11:30N 51°17' E 004°15'1 2.9
2018-Apr-17 11:00N 51°15' E 004°14'0 0.0
2018-Apr-17 10:30N 51°15' E 004°14'0 0.0
2018-Apr-17 09:56N 51°15' E 004°14'0 0.0
2018-Apr-17 09:29N 51°15' E 004°14'0 0.0
2018-Apr-17 08:59N 51°15' E 004°14'0 0.0
2018-Apr-17 08:29N 51°15' E 004°14'0 0.0
2018-Apr-17 07:59N 51°15' E 004°14'0 0.0
2018-Apr-17 07:26N 51°15' E 004°14'0 0.0
2018-Apr-17 06:59N 51°15' E 004°14'0 0.0
2018-Apr-17 06:29N 51°15' E 004°14'0 0.0
2018-Apr-17 05:59N 51°15' E 004°14'0 0.0
2018-Apr-17 05:29N 51°15' E 004°14'0 0.0
2018-Apr-17 04:59N 51°15' E 004°14'0 0.0
2018-Apr-17 04:29N 51°15' E 004°14'0 0.0
2018-Apr-17 03:59N 51°15' E 004°14'0 0.0
2018-Apr-17 03:29N 51°15' E 004°14'0 0.0
2018-Apr-17 02:59N 51°15' E 004°14'0 0.0
2018-Apr-17 02:29N 51°15' E 004°14'0 0.0
2018-Apr-17 02:00N 51°15' E 004°14'0 0.4
2018-Apr-17 01:30N 51°15' E 004°14'2 2.9
2018-Apr-17 00:59N 51°17' E 004°15'0 0.0
2018-Apr-17 00:30N 51°17' E 004°15'0 0.4
2018-Apr-17 00:00N 51°17' E 004°15'3 5.7
2018-Apr-16 23:30N 51°20' E 004°16'510.5
2018-Apr-16 23:00N 51°23' E 004°10'714.2
2018-Apr-16 22:30N 51°26' E 003°60'917.2
2018-Apr-16 22:00N 51°21' E 003°49'714.3
2018-Apr-16 21:30N 51°26' E 003°41'5 9.9
2018-Apr-16 21:00N 51°25' E 003°33'612.2
2018-Apr-16 20:30N 51°24' E 003°23'611.9
2018-Apr-16 20:00N 51°24' E 003°14'611.1
2018-Apr-16 19:30N 51°24' E 003°05'612.8
2018-Apr-16 19:01N 51°30' E 003°03'1019.6
2018-Apr-16 18:30N 51°39' E 003°11'917.8
2018-Apr-16 17:59N 51°48' E 003°16'1119.2
2018-Apr-16 17:25N 51°59' E 003°19'818.9
2018-Apr-16 17:00N 52°06' E 003°21'918.2
2018-Apr-16 16:30N 52°15' E 003°25'817.4
2018-Apr-16 16:00N 52°24' E 003°27'1017.3
2018-Apr-16 15:26N 52°33' E 003°29'20517.4
2018-Apr-16 03:38N 55°30' E 006°27'217.7
2018-Apr-16 03:30N 55°32' E 006°29'917.7
2018-Apr-16 03:00N 55°39' E 006°38'917.7
2018-Apr-16 02:30N 55°47' E 006°46'16417.1
2018-Apr-15 16:54N 57°45' E 010°13'717.3
2018-Apr-15 16:30N 57°47' E 010°25'917.7
2018-Apr-15 16:00N 57°48' E 010°41'816.8
2018-Apr-15 15:30N 57°45' E 010°56'917.2
2018-Apr-15 15:00N 57°39' E 011°07'917.5
2018-Apr-15 14:30N 57°32' E 011°18'917.2
2018-Apr-15 14:00N 57°26' E 011°28'917.8
2018-Apr-15 13:30N 57°17' E 011°34'918.1
2018-Apr-15 13:00N 57°09' E 011°39'11016.0
2018-Apr-15 06:08N 55°21' E 011°03'317.4
2018-Apr-15 05:57N 55°17' E 011°04'715.6
2018-Apr-15 05:30N 55°10' E 011°04'917.8
2018-Apr-15 05:00N 55°02' E 011°02'816.6
2018-Apr-15 04:30N 54°55' E 010°54'816.6
2018-Apr-15 04:00N 54°46' E 010°52'815.7
2018-Apr-15 03:30N 54°40' E 011°00'917.7
2018-Apr-15 03:00N 54°36' E 011°14'918.1
2018-Apr-15 02:30N 54°32' E 011°28'918.0
2018-Apr-15 02:00N 54°28' E 011°42'917.6
2018-Apr-15 01:30N 54°26' E 011°57'8316.7
2018-Apr-14 20:32N 55°04' E 014°05'017.5
2018-Apr-14 20:30N 55°04' E 014°06'917.4
2018-Apr-14 19:58N 55°12' E 014°16'817.9
2018-Apr-14 19:30N 55°18' E 014°24'917.9
2018-Apr-14 19:00N 55°25' E 014°34'917.6
2018-Apr-14 18:30N 55°30' E 014°47'917.5
2018-Apr-14 17:59N 55°35' E 015°01'817.5
2018-Apr-14 17:30N 55°38' E 015°14'917.7
2018-Apr-14 17:00N 55°43' E 015°28'917.6
2018-Apr-14 16:30N 55°47' E 015°41'917.8
2018-Apr-14 16:00N 55°51' E 015°55'917.9
2018-Apr-14 15:30N 55°56' E 016°09'917.9
2018-Apr-14 15:00N 56°00' E 016°23'917.7
2018-Apr-14 14:30N 56°05' E 016°37'917.6
2018-Apr-14 13:59N 56°13' E 016°45'917.8
2018-Apr-14 13:28N 56°21' E 016°51'1017.8
2018-Apr-14 12:54N 56°31' E 016°58'  

Dump ship's entire track history